Time;durP1;ratioP1;P1;durP2;ratioP2;P2;SDS_P1;SDS_P2;PMS_P1;PMS_P2;Temp;Humidity;BMP_temperature;BMP_pressure;BME280_temperature;BME280_humidity;BME280_pressure;Samples;Min_cycle;Max_cycle;Signal;HPM_P1;HPM_P2
2023/12/21 00:00:10;;;;;;;26.53;2.07;;;9.00;99.90;;;;;;5059071;28;20599;-81
2023/12/21 00:02:36;;;;;;;28.55;2.50;;;9.00;99.90;;;;;;5039996;28;20193;-81
2023/12/21 00:05:01;;;;;;;26.43;1.97;;;9.10;99.90;;;;;;5058375;28;20192;-82
2023/12/21 00:07:27;;;;;;;26.60;1.87;;;9.10;99.90;;;;;;5058575;28;20170;-81
2023/12/21 00:09:54;;;;;;;26.07;1.57;;;9.10;99.90;;;;;;5059088;28;20172;-82
2023/12/21 00:12:19;;;;;;;25.88;1.70;;;9.10;99.90;;;;;;5041190;28;20626;-82
2023/12/21 00:14:45;;;;;;;26.57;1.83;;;9.10;99.90;;;;;;5059150;28;20264;-82
2023/12/21 00:17:11;;;;;;;27.13;2.33;;;9.10;99.90;;;;;;5058904;28;20222;-82
2023/12/21 00:19:36;;;;;;;26.57;1.70;;;9.10;99.90;;;;;;5041281;28;20173;-81
2023/12/21 00:22:02;;;;;;;26.40;1.80;;;9.10;99.90;;;;;;5058853;28;20177;-82
2023/12/21 00:24:28;;;;;;;26.60;1.80;;;9.10;99.90;;;;;;5058276;28;20196;-81
2023/12/21 00:26:53;;;;;;;26.27;1.60;;;9.10;99.90;;;;;;5059176;28;20205;-82
2023/12/21 00:29:19;;;;;;;26.60;1.50;;;9.20;99.90;;;;;;5059325;28;20176;-82
2023/12/21 00:31:44;;;;;;;26.27;1.87;;;9.10;99.90;;;;;;5058527;28;20172;-82
2023/12/21 00:34:10;;;;;;;27.73;1.53;;;9.10;99.90;;;;;;5058491;28;20235;-81
2023/12/21 00:36:36;;;;;;;27.57;1.80;;;9.10;99.90;;;;;;5058620;28;20619;-81
2023/12/21 00:39:02;;;;;;;28.17;1.73;;;9.10;99.90;;;;;;5058890;28;20204;-81
2023/12/21 00:41:28;;;;;;;28.00;2.30;;;9.20;99.90;;;;;;5058791;28;20644;-81
2023/12/21 00:43:53;;;;;;;26.50;1.87;;;9.20;99.90;;;;;;5058570;28;20228;-81
2023/12/21 00:46:19;;;;;;;26.30;1.57;;;9.20;99.90;;;;;;5058728;28;20173;-81
2023/12/21 00:48:45;;;;;;;26.23;1.67;;;9.20;99.90;;;;;;5058650;28;20626;-81
2023/12/21 00:51:11;;;;;;;25.50;1.87;;;9.20;99.90;;;;;;5040495;28;20173;-82
2023/12/21 00:53:36;;;;;;;26.47;1.33;;;9.20;99.90;;;;;;5058658;28;20454;-82
2023/12/21 00:56:02;;;;;;;27.77;1.77;;;9.20;99.90;;;;;;5058002;28;20196;-81
2023/12/21 00:58:27;;;;;;;27.47;1.90;;;9.20;99.90;;;;;;5059332;28;20178;-82
2023/12/21 01:00:55;;;;;;;27.87;2.00;;;9.20;99.90;;;;;;5041412;28;20543;-82
2023/12/21 01:03:21;;;;;;;26.35;1.88;;;9.20;99.90;;;;;;5041072;28;20169;-82
2023/12/21 01:05:47;;;;;;;26.40;1.90;;;9.20;99.90;;;;;;5059232;28;20532;-82
2023/12/21 01:08:12;;;;;;;26.20;2.10;;;9.20;99.90;;;;;;5059432;28;20412;-82
2023/12/21 01:10:38;;;;;;;27.07;2.10;;;9.20;99.90;;;;;;5059658;28;20225;-82
2023/12/21 01:13:06;;;;;;;27.10;2.33;;;9.30;99.90;;;;;;5058711;28;20673;-82
2023/12/21 01:15:31;;;;;;;27.63;2.25;;;9.30;99.90;;;;;;5041831;28;20185;-82
2023/12/21 01:17:57;;;;;;;26.70;2.17;;;9.30;99.90;;;;;;5059703;28;20172;-82
2023/12/21 01:20:23;;;;;;;26.80;2.10;;;9.30;99.90;;;;;;5059319;28;20165;-82
2023/12/21 01:22:48;;;;;;;26.70;2.20;;;9.30;99.90;;;;;;5059404;28;20169;-82
2023/12/21 01:25:14;;;;;;;27.70;2.60;;;9.30;99.90;;;;;;5059185;28;20185;-82
2023/12/21 01:27:40;;;;;;;26.30;2.07;;;9.30;99.90;;;;;;5040574;28;20173;-82
2023/12/21 01:30:06;;;;;;;27.37;2.13;;;9.30;99.90;;;;;;5059033;28;20189;-82
2023/12/21 01:32:32;;;;;;;28.33;2.60;;;9.30;99.90;;;;;;5058977;28;20170;-82
2023/12/21 01:34:58;;;;;;;28.00;2.40;;;9.30;99.90;;;;;;5059804;28;20251;-82
2023/12/21 01:37:23;;;;;;;27.50;2.40;;;9.30;99.90;;;;;;5059637;28;20250;-83
2023/12/21 01:39:49;;;;;;;26.47;2.47;;;9.30;99.90;;;;;;5059425;28;20678;-82
2023/12/21 01:42:14;;;;;;;28.27;2.57;;;9.40;99.90;;;;;;5059662;28;20177;-82
2023/12/21 01:44:40;;;;;;;29.37;2.77;;;9.30;99.90;;;;;;5041239;28;20670;-82
2023/12/21 01:47:06;;;;;;;27.10;2.47;;;9.30;99.90;;;;;;5059883;28;20654;-82
2023/12/21 01:49:32;;;;;;;27.30;2.85;;;9.30;99.90;;;;;;5040901;28;20171;-82
2023/12/21 01:51:58;;;;;;;26.80;1.80;;;9.30;99.90;;;;;;5041520;28;20193;-82
2023/12/21 01:54:24;;;;;;;27.00;2.17;;;9.30;99.90;;;;;;5040623;28;20200;-82
2023/12/21 01:56:50;;;;;;;28.80;2.20;;;9.20;99.90;;;;;;5058217;28;20191;-82
2023/12/21 01:59:16;;;;;;;26.97;2.03;;;9.30;99.90;;;;;;5040864;28;20165;-82
2023/12/21 02:01:41;;;;;;;26.73;1.70;;;9.30;99.90;;;;;;5058554;28;20165;-82
2023/12/21 02:04:08;;;;;;;26.77;1.80;;;9.30;99.90;;;;;;5040340;28;20184;-82
2023/12/21 02:06:34;;;;;;;27.42;2.35;;;9.30;99.90;;;;;;5058515;28;20653;-82
2023/12/21 02:08:59;;;;;;;26.60;1.80;;;9.30;99.90;;;;;;5039749;28;20173;-81
2023/12/21 02:11:25;;;;;;;28.87;1.97;;;9.30;99.90;;;;;;5056944;28;20403;-81
2023/12/21 02:13:51;;;;;;;26.87;1.97;;;9.30;99.90;;;;;;5038732;28;20252;-82
2023/12/21 02:16:27;;;;;;;27.20;2.10;;;9.30;99.90;;;;;;5056799;28;20180;-82
2023/12/21 02:18:53;;;;;;;26.55;1.85;;;9.30;99.90;;;;;;5056926;28;20196;-81
2023/12/21 02:21:20;;;;;;;27.10;1.90;;;9.30;99.90;;;;;;5038786;28;20199;-82
2023/12/21 02:23:48;;;;;;;26.40;1.45;;;9.30;99.90;;;;;;5056912;28;20205;-81
2023/12/21 02:26:14;;;;;;;27.63;2.10;;;9.30;99.90;;;;;;5060451;28;20161;-82
2023/12/21 02:28:40;;;;;;;27.07;1.77;;;9.40;99.90;;;;;;5060902;28;20660;-82
2023/12/21 02:31:05;;;;;;;26.57;2.23;;;9.40;99.90;;;;;;5060633;28;20839;-82
2023/12/21 02:33:31;;;;;;;26.90;1.70;;;9.40;99.90;;;;;;5042878;28;20219;-82
2023/12/21 02:35:56;;;;;;;25.87;1.43;;;9.30;99.90;;;;;;5060605;28;20185;-82
2023/12/21 02:38:23;;;;;;;26.27;1.77;;;9.40;99.90;;;;;;5060670;28;20180;-82
2023/12/21 02:40:52;;;;;;;27.20;1.90;;;9.40;99.90;;;;;;5060606;28;20161;-82
2023/12/21 02:43:17;;;;;;;27.08;1.73;;;9.40;99.90;;;;;;5060369;28;20233;-82
2023/12/21 02:45:46;;;;;;;26.47;1.70;;;9.40;99.90;;;;;;5061097;28;20211;-82
2023/12/21 02:48:12;;;;;;;28.17;1.90;;;9.30;99.90;;;;;;5060795;28;20176;-81
2023/12/21 02:50:39;;;;;;;30.45;1.60;;;9.40;99.90;;;;;;5042946;28;20169;-81
2023/12/21 02:53:05;;;;;;;25.80;1.75;;;9.40;99.90;;;;;;5059719;28;20658;-82
2023/12/21 02:55:31;;;;;;;28.00;2.00;;;9.40;99.90;;;;;;5060075;28;20181;-81
2023/12/21 02:57:56;;;;;;;27.35;1.90;;;9.40;99.90;;;;;;5060951;28;20205;-81
2023/12/21 03:00:22;;;;;;;26.77;2.07;;;9.40;99.90;;;;;;5060569;28;20169;-80
2023/12/21 03:02:48;;;;;;;27.50;2.00;;;9.40;99.90;;;;;;5060666;28;20166;-81
2023/12/21 03:05:13;;;;;;;27.20;1.73;;;9.40;99.90;;;;;;5060495;28;20181;-81
2023/12/21 03:07:39;;;;;;;27.47;1.90;;;9.40;99.90;;;;;;5042366;28;20520;-81
2023/12/21 03:10:08;;;;;;;27.20;2.53;;;9.40;99.90;;;;;;5060256;28;20295;-81
2023/12/21 03:12:34;;;;;;;29.40;2.05;;;9.40;99.90;;;;;;5059925;28;20554;-81
2023/12/21 03:15:00;;;;;;;26.37;1.80;;;9.30;99.90;;;;;;5041954;28;20197;-82
2023/12/21 03:17:25;;;;;;;27.23;2.10;;;9.30;99.90;;;;;;5060896;28;20157;-81
2023/12/21 03:19:51;;;;;;;31.77;2.33;;;9.30;99.90;;;;;;5060606;28;20172;-81
2023/12/21 03:22:16;;;;;;;27.87;2.50;;;9.30;99.90;;;;;;5061483;28;20581;-82
2023/12/21 03:24:43;;;;;;;27.50;2.23;;;9.30;99.90;;;;;;5061931;28;20221;-82
2023/12/21 03:27:11;;;;;;;26.92;2.03;;;9.30;99.90;;;;;;5044233;28;20173;-82
2023/12/21 03:29:36;;;;;;;27.05;2.10;;;9.30;99.90;;;;;;5063416;28;20233;-82
2023/12/21 03:32:02;;;;;;;28.10;2.00;;;9.30;99.90;;;;;;5043925;28;20260;-82
2023/12/21 03:34:28;;;;;;;27.27;1.93;;;9.30;99.90;;;;;;5062113;28;20258;-82
2023/12/21 03:36:53;;;;;;;26.50;1.90;;;9.30;99.90;;;;;;5061008;28;20303;-82
2023/12/21 03:39:19;;;;;;;27.70;2.10;;;9.30;99.90;;;;;;5061334;28;20204;-82
2023/12/21 03:41:45;;;;;;;26.93;1.57;;;9.30;99.90;;;;;;5061814;28;20167;-82
2023/12/21 03:44:10;;;;;;;27.17;2.40;;;9.30;99.90;;;;;;5062006;28;20213;-83
2023/12/21 03:46:36;;;;;;;27.33;2.20;;;9.30;99.90;;;;;;5044064;28;20172;-82
2023/12/21 03:49:02;;;;;;;26.87;1.80;;;9.30;99.90;;;;;;5061425;28;20191;-83
2023/12/21 03:51:27;;;;;;;29.00;2.70;;;9.30;99.90;;;;;;5062104;28;20168;-83
2023/12/21 03:53:56;;;;;;;27.20;2.20;;;9.30;99.90;;;;;;5043075;28;20197;-83
2023/12/21 03:56:22;;;;;;;27.35;2.17;;;9.30;99.90;;;;;;5061055;28;20165;-83
2023/12/21 03:58:47;;;;;;;29.27;2.70;;;9.30;99.90;;;;;;5060825;28;20200;-82
2023/12/21 04:01:13;;;;;;;26.50;2.30;;;9.30;99.90;;;;;;5042665;28;20166;-83
2023/12/21 04:03:38;;;;;;;28.60;3.20;;;9.30;99.90;;;;;;5042724;28;20192;-83
2023/12/21 04:06:05;;;;;;;30.63;2.60;;;9.30;99.90;;;;;;5042336;28;20193;-82
2023/12/21 04:08:30;;;;;;;28.40;2.47;;;9.30;99.90;;;;;;5060994;28;20165;-82
2023/12/21 04:10:56;;;;;;;28.30;2.60;;;9.30;99.90;;;;;;5061358;28;20257;-82
2023/12/21 04:13:21;;;;;;;28.83;2.57;;;9.30;99.90;;;;;;5043351;28;20219;-82
2023/12/21 04:15:47;;;;;;;30.10;3.37;;;9.30;99.90;;;;;;5060297;28;20192;-82
2023/12/21 04:18:13;;;;;;;26.57;2.27;;;9.30;99.90;;;;;;5060871;28;20211;-82
2023/12/21 04:20:39;;;;;;;27.27;2.15;;;9.30;99.90;;;;;;5061091;28;20168;-82
2023/12/21 04:23:05;;;;;;;27.40;2.40;;;9.30;99.90;;;;;;5060072;28;20169;-82
2023/12/21 04:25:30;;;;;;;28.20;2.47;;;9.30;99.90;;;;;;5042838;28;20193;-82
2023/12/21 04:27:56;;;;;;;27.67;1.80;;;9.20;99.90;;;;;;5060451;28;20185;-82
2023/12/21 04:30:22;;;;;;;27.47;2.20;;;9.30;99.90;;;;;;5059804;28;20193;-82
2023/12/21 04:32:47;;;;;;;28.00;2.07;;;9.30;99.90;;;;;;5040602;28;20200;-82
2023/12/21 04:35:13;;;;;;;28.60;2.83;;;9.30;99.90;;;;;;5058904;28;20516;-81
2023/12/21 04:37:38;;;;;;;27.47;2.17;;;9.30;99.90;;;;;;5059664;28;20204;-81
2023/12/21 04:40:05;;;;;;;29.20;3.33;;;9.30;99.90;;;;;;5058883;28;20534;-82
2023/12/21 04:42:31;;;;;;;29.52;2.55;;;9.20;99.90;;;;;;5058811;28;20176;-81
2023/12/21 04:44:59;;;;;;;29.70;3.80;;;9.30;99.90;;;;;;5041118;28;20654;-81
2023/12/21 04:47:25;;;;;;;29.58;3.40;;;9.30;99.90;;;;;;5058677;28;20573;-81
2023/12/21 04:49:51;;;;;;;29.70;4.10;;;9.30;99.90;;;;;;5040723;28;20212;-81
2023/12/21 04:52:17;;;;;;;30.23;3.95;;;9.30;99.90;;;;;;5059124;28;20165;-81
2023/12/21 04:54:42;;;;;;;29.40;3.90;;;9.30;99.90;;;;;;5040715;28;20212;-82
2023/12/21 04:57:08;;;;;;;29.63;2.90;;;9.40;99.90;;;;;;5059689;28;20161;-81
2023/12/21 04:59:34;;;;;;;30.87;3.40;;;9.30;99.90;;;;;;5059110;28;20219;-82
2023/12/21 05:01:59;;;;;;;28.40;2.70;;;9.30;99.90;;;;;;5059019;28;20161;-82
2023/12/21 05:04:25;;;;;;;28.40;2.50;;;9.30;99.90;;;;;;5058361;28;20670;-81
2023/12/21 05:06:51;;;;;;;28.67;2.10;;;9.30;99.90;;;;;;5058782;28;20300;-81
2023/12/21 05:09:16;;;;;;;30.53;2.50;;;9.30;99.90;;;;;;5058337;28;20566;-82
2023/12/21 05:11:42;;;;;;;31.47;2.10;;;9.40;99.90;;;;;;5058558;28;20173;-81
2023/12/21 05:14:08;;;;;;;27.27;1.63;;;9.30;99.90;;;;;;5058426;28;20286;-81
2023/12/21 05:16:33;;;;;;;27.47;1.90;;;9.40;99.90;;;;;;5057998;28;20164;-81
2023/12/21 05:18:59;;;;;;;27.67;1.80;;;9.40;99.90;;;;;;5040390;28;20165;-82
2023/12/21 05:21:25;;;;;;;29.23;2.60;;;9.40;99.90;;;;;;5057893;28;20248;-81
2023/12/21 05:23:50;;;;;;;28.40;2.10;;;9.40;99.90;;;;;;5058066;28;20161;-81
2023/12/21 05:26:16;;;;;;;27.47;2.20;;;9.30;99.90;;;;;;5039794;28;20638;-81
2023/12/21 05:28:42;;;;;;;27.87;1.97;;;9.40;99.90;;;;;;5057577;28;20205;-81
2023/12/21 05:31:08;;;;;;;29.30;2.00;;;9.40;99.90;;;;;;5057609;28;20170;-80
2023/12/21 05:33:35;;;;;;;28.17;2.22;;;9.40;99.90;;;;;;5057387;28;20558;-81
2023/12/21 05:36:02;;;;;;;28.17;2.20;;;9.40;99.90;;;;;;5057447;28;20188;-82
2023/12/21 05:38:28;;;;;;;28.95;2.20;;;9.40;99.90;;;;;;5039148;28;20188;-82
2023/12/21 05:40:54;;;;;;;28.10;1.90;;;9.40;99.90;;;;;;5040178;28;20176;-82
2023/12/21 05:43:21;;;;;;;27.63;2.05;;;9.40;99.90;;;;;;5058748;28;20526;-83
2023/12/21 05:45:47;;;;;;;28.50;2.88;;;9.40;99.90;;;;;;5058989;28;20181;-83
2023/12/21 05:48:12;;;;;;;29.47;2.20;;;9.50;99.90;;;;;;5041493;28;20181;-83
2023/12/21 05:50:38;;;;;;;28.80;2.03;;;9.40;99.90;;;;;;5041169;28;20187;-83
2023/12/21 05:53:04;;;;;;;28.37;2.43;;;9.50;99.90;;;;;;5059638;28;20612;-83
2023/12/21 05:55:31;;;;;;;29.43;2.13;;;9.50;99.90;;;;;;5059317;28;20565;-83
2023/12/21 05:57:57;;;;;;;28.48;2.20;;;9.50;99.90;;;;;;5058849;28;20392;-83
2023/12/21 06:00:22;;;;;;;29.87;1.97;;;9.50;99.90;;;;;;5040615;28;20171;-83
2023/12/21 06:02:48;;;;;;;29.13;2.50;;;9.50;99.90;;;;;;5041210;28;20491;-83
2023/12/21 06:05:14;;;;;;;29.73;2.43;;;9.50;99.90;;;;;;5059120;28;20177;-83
2023/12/21 06:07:39;;;;;;;30.17;2.70;;;9.50;99.90;;;;;;5040928;28;20193;-83
2023/12/21 06:10:08;;;;;;;28.40;2.00;;;9.50;99.90;;;;;;5058953;28;20404;-83
2023/12/21 06:12:34;;;;;;;29.77;2.75;;;9.50;99.90;;;;;;5058886;28;20572;-82
2023/12/21 06:15:00;;;;;;;29.50;2.42;;;9.60;99.90;;;;;;5058090;28;20193;-82
2023/12/21 06:17:25;;;;;;;30.90;2.50;;;9.60;99.90;;;;;;5040715;28;20199;-83
2023/12/21 06:19:51;;;;;;;26.77;2.60;;;9.60;99.90;;;;;;5040202;28;20173;-83
2023/12/21 06:22:17;;;;;;;29.63;2.67;;;9.60;99.90;;;;;;5057688;28;20165;-83
2023/12/21 06:24:42;;;;;;;28.47;2.03;;;9.60;99.90;;;;;;5040277;28;20219;-82
2023/12/21 06:27:08;;;;;;;27.70;1.90;;;9.60;99.90;;;;;;5058754;28;20204;-83
2023/12/21 06:29:37;;;;;;;27.70;1.95;;;9.60;99.90;;;;;;5058706;28;20219;-82
2023/12/21 06:32:04;;;;;;;29.67;1.90;;;9.70;99.90;;;;;;5057876;28;20232;-82
2023/12/21 06:34:29;;;;;;;29.35;1.95;;;9.70;99.90;;;;;;5039604;28;20288;-83
2023/12/21 06:36:55;;;;;;;28.27;2.20;;;9.70;99.90;;;;;;5056840;28;20193;-81
2023/12/21 06:39:21;;;;;;;28.90;2.23;;;9.70;99.90;;;;;;5057897;28;20173;-82
2023/12/21 06:41:47;;;;;;;28.60;2.77;;;9.70;99.90;;;;;;5058332;28;20396;-82
2023/12/21 06:44:12;;;;;;;30.10;2.67;;;9.70;99.90;;;;;;5057432;28;20189;-82
2023/12/21 06:46:38;;;;;;;27.70;2.27;;;9.80;99.90;;;;;;5057889;28;20546;-82
2023/12/21 06:49:04;;;;;;;29.87;2.10;;;9.80;99.90;;;;;;5057737;28;20535;-82
2023/12/21 06:51:29;;;;;;;29.83;2.40;;;9.80;99.90;;;;;;5057996;28;20649;-82
2023/12/21 06:53:55;;;;;;;29.80;2.90;;;9.80;99.90;;;;;;5056680;28;20251;-82
2023/12/21 06:56:20;;;;;;;29.77;2.70;;;9.80;99.90;;;;;;5038889;28;20170;-82
2023/12/21 06:58:46;;;;;;;29.93;2.40;;;9.80;99.90;;;;;;5038542;28;20158;-81
2023/12/21 07:01:12;;;;;;;30.10;2.73;;;9.80;99.90;;;;;;5056594;28;20169;-82
2023/12/21 07:03:38;;;;;;;28.57;2.70;;;9.80;99.90;;;;;;5056108;28;20526;-81
2023/12/21 07:06:03;;;;;;;33.43;2.50;;;9.80;99.90;;;;;;5056423;28;20427;-81
2023/12/21 07:08:29;;;;;;;26.87;2.50;;;9.80;99.90;;;;;;5056415;28;20157;-81
2023/12/21 07:10:55;;;;;;;33.67;4.07;;;9.90;99.90;;;;;;5055898;28;20191;-82
2023/12/21 07:13:20;;;;;;;30.27;2.63;;;9.90;99.90;;;;;;5059692;28;20200;-82
2023/12/21 07:15:46;;;;;;;28.40;2.57;;;9.90;99.90;;;;;;5060501;28;20272;-82
2023/12/21 07:18:12;;;;;;;32.80;3.17;;;9.90;99.90;;;;;;5060052;28;20170;-81
2023/12/21 07:20:38;;;;;;;29.23;3.00;;;9.90;99.90;;;;;;5059547;28;20166;-80
2023/12/21 07:23:03;;;;;;;32.80;2.97;;;9.90;99.90;;;;;;5059278;28;20404;-81
2023/12/21 07:25:29;;;;;;;31.13;3.10;;;9.90;99.90;;;;;;5058795;28;20498;-81
2023/12/21 07:27:57;;;;;;;28.77;2.27;;;10.00;99.90;;;;;;5059532;28;20196;-81
2023/12/21 07:30:23;;;;;;;30.80;2.50;;;10.00;99.90;;;;;;5041224;28;20230;-81
2023/12/21 07:32:48;;;;;;;34.67;2.80;;;10.00;99.90;;;;;;5058817;28;20244;-81
2023/12/21 07:35:15;;;;;;;29.50;2.70;;;10.00;99.90;;;;;;5059045;28;20181;-81
2023/12/21 07:37:40;;;;;;;33.03;3.28;;;10.00;99.90;;;;;;5059695;28;20181;-81
2023/12/21 07:40:07;;;;;;;27.80;2.70;;;10.00;99.90;;;;;;5041314;28;20157;-80
2023/12/21 07:42:33;;;;;;;29.45;3.00;;;10.00;99.90;;;;;;5058636;28;20188;-80
2023/12/21 07:44:58;;;;;;;29.23;2.13;;;10.00;99.90;;;;;;5058876;28;20185;-82
2023/12/21 07:47:26;;;;;;;27.70;2.10;;;10.00;99.90;;;;;;5058752;28;20225;-81
2023/12/21 07:49:52;;;;;;;31.63;2.80;;;10.00;99.90;;;;;;5059221;28;20239;-81
2023/12/21 07:52:18;;;;;;;33.80;2.73;;;10.00;99.90;;;;;;5058756;28;20251;-81
2023/12/21 07:54:43;;;;;;;29.73;2.00;;;10.00;99.90;;;;;;5058891;28;20199;-82
2023/12/21 07:57:10;;;;;;;31.50;2.80;;;10.00;99.90;;;;;;5059214;28;20165;-82
2023/12/21 07:59:36;;;;;;;28.23;2.30;;;10.10;99.90;;;;;;5059001;28;20157;-82
2023/12/21 08:02:02;;;;;;;29.20;3.50;;;10.10;99.90;;;;;;5040888;28;20173;-82
2023/12/21 08:04:28;;;;;;;30.45;2.55;;;10.10;99.90;;;;;;5041549;28;20193;-82
2023/12/21 08:06:54;;;;;;;31.80;2.50;;;10.10;99.90;;;;;;5060411;28;20157;-81
2023/12/21 08:09:20;;;;;;;29.00;3.70;;;10.20;99.90;;;;;;5060371;28;20166;-82
2023/12/21 08:11:45;;;;;;;29.00;2.90;;;10.20;99.90;;;;;;5059865;28;20169;-83
2023/12/21 08:14:11;;;;;;;30.33;2.57;;;10.20;99.90;;;;;;5060344;28;20509;-82
2023/12/21 08:16:37;;;;;;;29.00;2.47;;;10.20;99.90;;;;;;5059858;28;20216;-82
2023/12/21 08:19:03;;;;;;;31.27;2.50;;;10.20;99.90;;;;;;5042158;28;20165;-82
2023/12/21 08:21:29;;;;;;;29.17;2.50;;;10.30;99.90;;;;;;5059949;28;20154;-82
2023/12/21 08:23:54;;;;;;;28.00;2.90;;;10.30;99.90;;;;;;5041286;28;20165;-81
2023/12/21 08:26:20;;;;;;;29.80;2.93;;;10.30;99.90;;;;;;5060210;28;20169;-82
2023/12/21 08:28:46;;;;;;;26.60;2.30;;;10.30;99.90;;;;;;5041793;28;20257;-82
2023/12/21 08:31:22;;;;;;;31.50;3.20;;;10.40;99.90;;;;;;5041558;28;20184;-81
2023/12/21 08:33:47;;;;;;;25.92;2.00;;;10.40;99.90;;;;;;5059058;28;20177;-82
2023/12/21 08:36:13;;;;;;;25.63;1.90;;;10.40;99.90;;;;;;5059665;28;20614;-81
2023/12/21 08:38:40;;;;;;;28.00;2.73;;;10.40;99.90;;;;;;5059003;28;20181;-82
2023/12/21 08:41:05;;;;;;;28.80;2.38;;;10.50;99.90;;;;;;5040905;28;20169;-82
2023/12/21 08:43:36;;;;;;;24.43;1.90;;;10.50;99.90;;;;;;5059060;28;20172;-80
2023/12/21 08:46:01;;;;;;;25.75;2.05;;;10.50;99.90;;;;;;5058904;28;20189;-82
2023/12/21 08:48:27;;;;;;;29.47;2.83;;;10.50;99.90;;;;;;5058566;28;20264;-81
2023/12/21 08:50:53;;;;;;;28.40;2.10;;;10.50;99.90;;;;;;5041152;28;20407;-81
2023/12/21 08:53:19;;;;;;;28.80;2.43;;;10.50;99.90;;;;;;5059407;28;20999;-81
2023/12/21 08:55:45;;;;;;;27.00;1.97;;;10.50;99.90;;;;;;5059144;28;20220;-81
2023/12/21 08:58:10;;;;;;;25.60;2.83;;;10.50;99.90;;;;;;5041222;28;20176;-81
2023/12/21 09:00:36;;;;;;;29.33;2.07;;;10.50;99.90;;;;;;5059123;28;20415;-82
2023/12/21 09:03:03;;;;;;;25.33;1.87;;;10.50;99.90;;;;;;5058933;28;20244;-81
2023/12/21 09:05:28;;;;;;;27.02;1.90;;;10.40;99.90;;;;;;5058364;28;20420;-81
2023/12/21 09:07:54;;;;;;;26.33;2.00;;;10.40;99.90;;;;;;5040654;28;20172;-81
2023/12/21 09:10:20;;;;;;;26.65;1.90;;;10.40;99.90;;;;;;5059048;28;20534;-81
2023/12/21 09:12:46;;;;;;;27.77;2.15;;;10.40;99.90;;;;;;5040653;28;20180;-81
2023/12/21 09:15:12;;;;;;;26.67;1.93;;;10.30;99.90;;;;;;5057946;28;20199;-80
2023/12/21 09:17:40;;;;;;;27.10;2.70;;;10.30;99.90;;;;;;5057084;28;20411;-81
2023/12/21 09:20:08;;;;;;;24.70;1.55;;;10.30;99.90;;;;;;5038604;28;20410;-81
2023/12/21 09:22:34;;;;;;;28.33;2.00;;;10.30;99.90;;;;;;5038617;28;20165;-80
2023/12/21 09:25:02;;;;;;;27.43;3.37;;;10.30;99.90;;;;;;5038924;28;20216;-80
2023/12/21 09:27:28;;;;;;;27.85;2.97;;;10.30;99.90;;;;;;5056423;28;20165;-80
2023/12/21 09:29:54;;;;;;;27.33;3.25;;;10.30;99.90;;;;;;5056152;28;20248;-80
2023/12/21 09:32:20;;;;;;;28.40;2.72;;;10.20;99.90;;;;;;5056211;28;20166;-80
2023/12/21 09:34:49;;;;;;;29.50;2.50;;;10.20;99.90;;;;;;5055822;28;20208;-80
2023/12/21 09:37:18;;;;;;;33.45;2.30;;;10.20;99.90;;;;;;5055643;28;20830;-80
2023/12/21 09:39:44;;;;;;;31.38;2.45;;;10.20;99.90;;;;;;5037746;28;20586;-80
2023/12/21 09:42:14;;;;;;;26.57;2.53;;;10.20;99.90;;;;;;5055744;28;20215;-81
2023/12/21 09:44:42;;;;;;;27.10;2.35;;;10.20;99.90;;;;;;5055841;28;20199;-80
2023/12/21 09:47:08;;;;;;;28.50;1.90;;;10.20;99.90;;;;;;5055891;28;20185;-81
2023/12/21 09:49:36;;;;;;;27.03;2.00;;;10.20;99.90;;;;;;5056049;28;20169;-81
2023/12/21 09:52:07;;;;;;;26.27;2.10;;;10.20;99.90;;;;;;5037440;28;20468;-82
2023/12/21 09:54:35;;;;;;;27.08;2.20;;;10.20;99.90;;;;;;5037361;28;20210;-81
2023/12/21 09:57:03;;;;;;;27.50;2.10;;;10.20;99.90;;;;;;5055201;28;20171;-81
2023/12/21 09:59:33;;;;;;;28.23;2.28;;;10.20;99.90;;;;;;5055497;28;20181;-80
2023/12/21 10:02:00;;;;;;;27.00;1.70;;;10.20;99.90;;;;;;5037699;28;20161;-81
2023/12/21 10:04:25;;;;;;;26.88;2.30;;;10.20;99.90;;;;;;5037013;28;20193;-81
2023/12/21 10:06:52;;;;;;;28.13;2.20;;;10.20;99.90;;;;;;5055220;28;20158;-81
2023/12/21 10:09:18;;;;;;;26.67;1.60;;;10.20;99.90;;;;;;5055691;28;20403;-82
2023/12/21 10:11:44;;;;;;;26.00;1.77;;;10.20;99.90;;;;;;5037695;28;20242;-80
2023/12/21 10:14:19;;;;;;;27.05;1.70;;;10.20;99.90;;;;;;5055072;28;20451;-82
2023/12/21 10:16:45;;;;;;;26.63;2.10;;;10.20;99.90;;;;;;5037630;28;20570;-81
2023/12/21 10:19:12;;;;;;;34.85;2.00;;;10.20;99.90;;;;;;5055132;28;20169;-81
2023/12/21 10:21:40;;;;;;;26.75;2.05;;;10.30;99.90;;;;;;5055633;28;20607;-83
2023/12/21 10:24:06;;;;;;;27.50;4.70;;;10.30;99.90;;;;;;5055097;28;20171;-82
2023/12/21 10:26:44;;;;;;;26.02;1.88;;;10.30;99.90;;;;;;5038248;28;20177;-82
2023/12/21 10:29:17;;;;;;;30.45;1.80;;;10.30;99.90;;;;;;5041017;28;20212;-83
2023/12/21 10:31:46;;;;;;;26.80;1.27;;;10.30;99.90;;;;;;5058316;28;20175;-83
2023/12/21 10:34:13;;;;;;;30.70;1.50;;;10.30;99.90;;;;;;5040012;28;20279;-83
2023/12/21 10:36:43;;;;;;;27.77;3.17;;;10.30;99.90;;;;;;5058350;28;20161;-82
2023/12/21 10:39:10;;;;;;;26.77;1.58;;;10.40;99.90;;;;;;5057279;28;20673;-83
2023/12/21 10:41:45;;;;;;;27.42;1.73;;;10.40;99.90;;;;;;5057802;28;20165;-84
2023/12/21 10:44:14;;;;;;;25.88;1.40;;;10.40;99.90;;;;;;5058170;28;20180;-83
2023/12/21 10:46:41;;;;;;;26.67;1.52;;;10.40;99.90;;;;;;5060057;28;20161;-83
2023/12/21 10:49:12;;;;;;;27.10;2.03;;;10.40;99.90;;;;;;5061662;28;20240;-84
2023/12/21 10:51:43;;;;;;;27.05;1.30;;;10.40;99.90;;;;;;5062212;28;20215;-83
2023/12/21 10:54:11;;;;;;;26.95;2.88;;;10.40;99.90;;;;;;5061837;28;20197;-81
2023/12/21 10:56:44;;;;;;;34.70;2.00;;;10.40;99.90;;;;;;5042783;28;20158;-83
2023/12/21 10:59:12;;;;;;;27.40;1.80;;;10.40;99.90;;;;;;5043674;28;20153;-83
2023/12/21 11:01:39;;;;;;;27.77;2.40;;;10.50;99.90;;;;;;5061274;28;20170;-83
2023/12/21 11:04:06;;;;;;;28.70;2.03;;;10.50;99.90;;;;;;5042806;28;20173;-83
2023/12/21 11:06:36;;;;;;;27.50;2.60;;;10.50;99.90;;;;;;5043580;28;20185;-83
2023/12/21 11:09:06;;;;;;;27.80;2.58;;;10.50;99.90;;;;;;5043188;28;20177;-82
2023/12/21 11:11:34;;;;;;;27.30;2.65;;;10.50;99.90;;;;;;5061468;28;20150;-83
2023/12/21 11:14:00;;;;;;;28.05;2.40;;;10.50;99.90;;;;;;5059850;28;20189;-84
2023/12/21 11:16:49;;;;;;;27.30;1.80;;;10.50;99.90;;;;;;5042930;28;20649;-81
2023/12/21 11:19:26;;;;;;;27.48;2.85;;;10.50;99.90;;;;;;5048254;28;20408;-84
2023/12/21 11:21:55;;;;;;;28.75;2.40;;;10.50;99.90;;;;;;5061855;28;20146;-83
2023/12/21 11:24:22;;;;;;;28.05;2.60;;;10.50;99.90;;;;;;5060490;28;20264;-83
2023/12/21 11:26:50;;;;;;;29.77;2.75;;;10.50;99.90;;;;;;5061287;28;20635;-83
2023/12/21 11:29:27;;;;;;;27.20;2.10;;;10.50;99.90;;;;;;5061215;28;20184;-83
2023/12/21 11:31:56;;;;;;;27.15;3.50;;;10.60;99.90;;;;;;5061354;28;20153;-82
2023/12/21 11:34:42;;;;;;;29.63;2.95;;;10.60;99.90;;;;;;5042341;28;20573;-82
2023/12/21 11:37:25;;;;;;;28.40;2.35;;;10.60;99.90;;;;;;5042645;28;20227;-83
2023/12/21 11:39:53;;;;;;;29.10;2.33;;;10.60;99.90;;;;;;5041134;28;20372;-81
2023/12/21 11:42:32;;;;;;;29.45;2.35;;;10.70;99.90;;;;;;5040888;28;20197;-82
2023/12/21 11:45:07;;;;;;;30.25;2.38;;;10.70;99.90;;;;;;5058158;28;20216;-80
2023/12/21 11:47:34;;;;;;;29.98;3.05;;;10.70;99.90;;;;;;5057776;28;20153;-81
2023/12/21 11:50:19;;;;;;;30.52;2.92;;;10.80;99.90;;;;;;5040205;28;20173;-81
2023/12/21 11:52:51;;;;;;;28.85;2.65;;;10.90;99.90;;;;;;5039296;28;20244;-81
2023/12/21 11:55:24;;;;;;;30.15;3.20;;;10.90;99.90;;;;;;5039498;28;20690;-81
2023/12/21 11:58:05;;;;;;;26.80;2.40;;;10.90;99.90;;;;;;5056459;28;20168;-81
2023/12/21 12:00:31;;;;;;;28.95;2.65;;;10.90;99.90;;;;;;5057620;28;20150;-81
2023/12/21 12:02:58;;;;;;;28.75;2.45;;;10.90;99.90;;;;;;5039185;28;20251;-81
2023/12/21 12:05:23;;;;;;;31.45;2.33;;;10.90;99.90;;;;;;5057459;28;20200;-81
2023/12/21 12:07:50;;;;;;;31.43;2.67;;;10.90;99.90;;;;;;5057297;28;20502;-82
2023/12/21 12:10:22;;;;;;;27.75;3.40;;;10.90;99.90;;;;;;5057313;28;20165;-82
2023/12/21 12:12:48;;;;;;;30.40;3.67;;;10.90;99.90;;;;;;5038870;28;20165;-82
2023/12/21 12:15:14;;;;;;;33.17;2.65;;;10.90;99.90;;;;;;5056920;28;20276;-82
2023/12/21 12:17:41;;;;;;;28.80;2.10;;;10.90;99.90;;;;;;5039136;28;20165;-82
2023/12/21 12:20:11;;;;;;;30.52;2.92;;;10.90;99.90;;;;;;5056972;28;20211;-81
2023/12/21 12:22:40;;;;;;;30.20;2.42;;;10.90;99.90;;;;;;5056765;28;20617;-82
2023/12/21 12:25:06;;;;;;;32.50;3.20;;;11.00;99.90;;;;;;5057035;28;20196;-82
2023/12/21 12:27:32;;;;;;;28.20;2.60;;;11.00;99.90;;;;;;5056855;28;20169;-82
2023/12/21 12:29:59;;;;;;;28.88;2.42;;;11.10;99.90;;;;;;5056506;28;20199;-82
2023/12/21 12:32:28;;;;;;;30.42;4.10;;;11.10;99.90;;;;;;5056887;28;20172;-83
2023/12/21 12:34:57;;;;;;;30.00;2.53;;;11.20;99.90;;;;;;5056321;28;20612;-81
2023/12/21 12:37:23;;;;;;;28.15;2.90;;;11.20;99.90;;;;;;5038890;28;20178;-82
2023/12/21 12:39:50;;;;;;;29.50;2.30;;;11.20;99.90;;;;;;5038420;28;20623;-82